Time;durP1;ratioP1;P1;durP2;ratioP2;P2;SDS_P1;SDS_P2;PMS_P1;PMS_P2;Temp;Humidity;BMP_temperature;BMP_pressure;BME280_temperature;BME280_humidity;BME280_pressure;Samples;Min_cycle;Max_cycle;Signal;HPM_P1;HPM_P2
2022/12/29 00:00:07;;;;;;;9.95;7.72;;;-1.20;99.90;;;;;;5072564;28;20534;-54
2022/12/29 00:02:32;;;;;;;9.65;7.50;;;-1.20;99.90;;;;;;5053541;28;20035;-52
2022/12/29 00:04:58;;;;;;;9.40;7.82;;;-1.20;99.90;;;;;;5052786;28;20033;-49
2022/12/29 00:07:24;;;;;;;11.68;8.77;;;-1.30;99.90;;;;;;5052658;28;20025;-51
2022/12/29 00:09:49;;;;;;;12.20;8.07;;;-1.20;99.90;;;;;;5052534;28;20045;-53
2022/12/29 00:12:15;;;;;;;11.13;6.93;;;-1.20;99.90;;;;;;5052396;28;20040;-56
2022/12/29 00:17:25;;;;;;;9.82;7.22;;;-1.10;99.90;;;;;;5055279;28;20392;-51
2022/12/29 00:36:21;;;;;;;12.20;8.63;;;-1.20;99.90;;;;;;5052107;28;20039;-51
2022/12/29 00:44:22;;;;;;;12.43;7.53;;;-1.30;99.90;;;;;;5052061;28;20476;-50
2022/12/29 00:46:48;;;;;;;10.27;6.78;;;-1.40;99.90;;;;;;5052034;28;20029;-53
2022/12/29 00:49:32;;;;;;;11.75;7.07;;;-1.40;99.90;;;;;;5051736;28;20035;-53
2022/12/29 00:52:09;;;;;;;12.05;7.80;;;-1.40;99.90;;;;;;5051844;28;20051;-53
2022/12/29 00:54:38;;;;;;;17.38;7.35;;;-1.40;99.90;;;;;;5052860;28;20067;-51
2022/12/29 00:57:05;;;;;;;10.75;5.97;;;-1.30;99.90;;;;;;5051882;28;20361;-51
2022/12/29 00:59:31;;;;;;;10.45;7.13;;;-1.30;99.90;;;;;;5051834;28;20021;-51
2022/12/29 01:01:57;;;;;;;10.95;7.65;;;-1.30;99.90;;;;;;5051903;28;20021;-54
2022/12/29 01:04:25;;;;;;;9.77;7.22;;;-1.30;99.90;;;;;;5051537;28;20379;-50
2022/12/29 01:06:51;;;;;;;12.75;7.75;;;-1.30;99.90;;;;;;5051708;28;20021;-53
2022/12/29 01:12:04;;;;;;;7.90;5.97;;;-1.40;99.90;;;;;;5051721;28;20039;-51
2022/12/29 01:14:30;;;;;;;7.55;6.00;;;-1.30;99.90;;;;;;5050889;28;20025;-52
2022/12/29 01:16:57;;;;;;;8.73;6.57;;;-1.30;99.90;;;;;;5051473;28;20663;-51
2022/12/29 01:19:23;;;;;;;9.13;6.93;;;-1.30;99.90;;;;;;5051455;28;20029;-51
2022/12/29 01:21:49;;;;;;;8.88;6.13;;;-1.30;99.90;;;;;;5051534;28;20053;-50
2022/12/29 01:24:16;;;;;;;9.20;6.63;;;-1.40;99.90;;;;;;5052323;28;20029;-50
2022/12/29 01:26:42;;;;;;;6.93;6.15;;;-1.40;99.90;;;;;;5071577;28;20033;-54
2022/12/29 01:29:08;;;;;;;8.63;6.70;;;-1.40;99.90;;;;;;5071506;28;20024;-54
2022/12/29 01:31:34;;;;;;;7.03;5.50;;;-1.40;99.90;;;;;;5071146;28;20074;-52
2022/12/29 01:34:00;;;;;;;11.13;5.90;;;-1.40;99.90;;;;;;5071425;28;20028;-51
2022/12/29 01:36:26;;;;;;;9.82;6.50;;;-1.40;99.90;;;;;;5071317;28;20020;-54
2022/12/29 01:38:51;;;;;;;8.40;6.70;;;-1.30;99.90;;;;;;5069610;28;20024;-52
2022/12/29 01:41:18;;;;;;;7.78;6.63;;;-1.30;99.90;;;;;;5051186;28;20032;-52
2022/12/29 01:43:56;;;;;;;10.23;7.32;;;-1.30;99.90;;;;;;5051362;28;20418;-51
2022/12/29 01:46:37;;;;;;;10.23;6.20;;;-1.30;99.90;;;;;;5051180;28;20025;-51
2022/12/29 01:49:35;;;;;;;8.50;6.75;;;-1.40;99.90;;;;;;5051238;28;20024;-54
2022/12/29 01:52:05;;;;;;;8.63;5.60;;;-1.40;99.90;;;;;;5060628;28;20137;-50
2022/12/29 01:54:40;;;;;;;8.25;5.53;;;-1.30;99.90;;;;;;5051053;28;20112;-51
2022/12/29 01:57:12;;;;;;;7.30;5.00;;;-1.40;99.90;;;;;;5052265;28;20028;-54
2022/12/29 01:59:42;;;;;;;7.03;4.85;;;-1.40;99.90;;;;;;5049838;28;20341;-52
2022/12/29 02:02:08;;;;;;;7.47;5.45;;;-1.40;99.90;;;;;;5051200;28;20488;-54
2022/12/29 02:04:35;;;;;;;10.05;5.68;;;-1.40;99.90;;;;;;5051027;28;20104;-52
2022/12/29 02:07:05;;;;;;;6.57;5.35;;;-1.40;99.90;;;;;;5050972;28;20056;-50
2022/12/29 02:09:31;;;;;;;6.00;5.40;;;-1.30;99.90;;;;;;5050911;28;20413;-52
2022/12/29 02:11:58;;;;;;;8.38;5.57;;;-1.30;99.90;;;;;;5069672;28;20024;-51
2022/12/29 02:14:23;;;;;;;8.80;6.38;;;-1.40;99.90;;;;;;5070817;28;20052;-55
2022/12/29 02:17:14;;;;;;;12.75;5.75;;;-1.40;99.90;;;;;;5070828;28;20474;-50
2022/12/29 02:19:55;;;;;;;6.07;5.05;;;-1.40;99.90;;;;;;5070851;28;20032;-52
2022/12/29 02:22:26;;;;;;;7.88;6.32;;;-1.40;99.90;;;;;;5070792;28;20460;-51
2022/12/29 02:24:52;;;;;;;5.88;5.28;;;-1.50;99.90;;;;;;5070945;28;20070;-50
2022/12/29 02:27:27;;;;;;;8.32;5.70;;;-1.50;99.90;;;;;;5073429;28;20691;-51
2022/12/29 02:30:07;;;;;;;6.15;5.15;;;-1.50;99.90;;;;;;5073661;28;20070;-50
2022/12/29 02:32:45;;;;;;;6.25;5.60;;;-1.50;99.90;;;;;;5073810;28;20047;-51
2022/12/29 02:35:20;;;;;;;7.35;5.25;;;-1.50;99.90;;;;;;5073439;28;20109;-50
2022/12/29 02:38:01;;;;;;;6.28;5.07;;;-1.50;99.90;;;;;;5073198;28;20555;-50
2022/12/29 02:40:43;;;;;;;5.88;4.90;;;-1.50;99.90;;;;;;5060940;28;20028;-50
2022/12/29 02:43:21;;;;;;;6.65;5.05;;;-1.50;99.90;;;;;;5053397;28;20036;-49
2022/12/29 02:46:03;;;;;;;5.90;5.20;;;-1.50;99.90;;;;;;5054059;28;20368;-50
2022/12/29 02:48:36;;;;;;;7.00;5.35;;;-1.60;99.90;;;;;;5053912;28;20040;-52
2022/12/29 02:51:06;;;;;;;7.70;5.68;;;-1.60;99.90;;;;;;5053717;28;20110;-50
2022/12/29 02:56:27;;;;;;;6.13;5.20;;;-1.70;99.90;;;;;;5054084;28;20495;-51
2022/12/29 02:58:52;;;;;;;7.00;5.93;;;-1.70;99.90;;;;;;5063664;28;20108;-53
2022/12/29 03:01:24;;;;;;;6.40;4.85;;;-1.80;99.90;;;;;;5053886;28;20424;-50
2022/12/29 03:04:18;;;;;;;7.72;5.63;;;-1.80;99.90;;;;;;5053884;28;20532;-50
2022/12/29 03:07:18;;;;;;;5.78;4.85;;;-1.70;99.90;;;;;;5053729;28;20021;-51
2022/12/29 03:09:57;;;;;;;6.18;4.97;;;-1.80;99.90;;;;;;5053505;28;20429;-53
2022/12/29 03:16:04;;;;;;;5.53;5.03;;;-1.80;99.90;;;;;;5053627;28;20479;-52
2022/12/29 03:18:49;;;;;;;6.28;5.22;;;-1.80;99.90;;;;;;5053612;28;20055;-52
2022/12/29 03:24:42;;;;;;;10.23;5.40;;;-1.80;99.90;;;;;;5052399;28;20040;-52
2022/12/29 03:27:12;;;;;;;5.65;4.90;;;-1.80;99.90;;;;;;5053585;28;20048;-51
2022/12/29 03:29:45;;;;;;;5.47;4.97;;;-1.80;99.90;;;;;;5053495;28;20025;-50
2022/12/29 03:32:13;;;;;;;7.28;5.47;;;-1.90;99.90;;;;;;5053419;28;20029;-52
2022/12/29 03:34:39;;;;;;;8.40;4.75;;;-1.90;99.90;;;;;;5051686;28;20033;-49
2022/12/29 03:37:12;;;;;;;5.65;4.65;;;-1.90;99.90;;;;;;5052677;28;20021;-54
2022/12/29 03:39:38;;;;;;;6.68;5.65;;;-1.90;99.90;;;;;;5052936;28;20029;-50
2022/12/29 03:42:12;;;;;;;4.95;4.43;;;-1.90;99.90;;;;;;5053241;28;20055;-51
2022/12/29 03:44:41;;;;;;;7.18;4.82;;;-1.90;99.90;;;;;;5052967;28;20039;-51
2022/12/29 03:47:09;;;;;;;7.63;4.07;;;-1.90;99.90;;;;;;5052941;28;20033;-52
2022/12/29 03:49:35;;;;;;;9.25;4.53;;;-1.90;99.90;;;;;;5053865;28;20421;-49
2022/12/29 03:52:01;;;;;;;5.43;4.47;;;-1.90;99.90;;;;;;5054074;28;20040;-53
2022/12/29 03:54:26;;;;;;;5.38;4.78;;;-1.90;99.90;;;;;;5052577;28;20222;-49
2022/12/29 03:56:58;;;;;;;4.93;4.43;;;-1.90;99.90;;;;;;5053089;28;20365;-54
2022/12/29 03:59:24;;;;;;;4.65;4.25;;;-1.90;99.90;;;;;;5052750;28;20087;-50
2022/12/29 04:01:49;;;;;;;5.40;4.90;;;-1.90;99.90;;;;;;5052995;28;20070;-52
2022/12/29 04:04:15;;;;;;;5.35;4.85;;;-1.90;99.90;;;;;;5052414;28;20028;-49
2022/12/29 04:06:41;;;;;;;6.55;4.80;;;-1.90;99.90;;;;;;5051501;28;20029;-52
2022/12/29 04:09:06;;;;;;;5.53;4.50;;;-1.90;99.90;;;;;;5064121;28;20032;-50
2022/12/29 04:11:32;;;;;;;4.22;3.78;;;-1.90;99.90;;;;;;5060138;28;20123;-50
2022/12/29 04:13:58;;;;;;;5.50;4.10;;;-1.90;99.90;;;;;;5052197;28;20061;-51
2022/12/29 04:16:23;;;;;;;9.85;3.88;;;-1.90;99.90;;;;;;5052153;28;20025;-50
2022/12/29 04:18:49;;;;;;;4.50;4.10;;;-1.90;99.90;;;;;;5052215;28;20017;-51
2022/12/29 04:21:15;;;;;;;4.00;3.33;;;-2.00;99.90;;;;;;5052245;28;20035;-55
2022/12/29 04:23:40;;;;;;;4.72;4.32;;;-2.00;99.90;;;;;;5052330;28;20021;-50
2022/12/29 04:26:08;;;;;;;7.28;4.35;;;-2.00;99.90;;;;;;5062422;28;20109;-50
2022/12/29 04:28:35;;;;;;;5.93;4.68;;;-2.00;99.90;;;;;;5071525;28;20412;-53
2022/12/29 04:31:01;;;;;;;6.43;3.80;;;-2.10;99.90;;;;;;5072076;28;20356;-49
2022/12/29 04:33:27;;;;;;;6.00;4.32;;;-2.00;99.90;;;;;;5071889;28;20086;-52
2022/12/29 04:35:53;;;;;;;5.63;4.28;;;-2.00;99.90;;;;;;5071516;28;20083;-50
2022/12/29 04:38:20;;;;;;;5.20;4.18;;;-2.00;99.90;;;;;;5071355;28;20103;-52
2022/12/29 04:40:46;;;;;;;6.10;4.75;;;-2.10;99.90;;;;;;5070254;28;20024;-51
2022/12/29 04:43:13;;;;;;;7.40;4.10;;;-2.10;99.90;;;;;;5071750;28;20107;-52
2022/12/29 04:45:46;;;;;;;4.80;4.30;;;-2.10;99.90;;;;;;5071868;28;20032;-52
2022/12/29 04:48:12;;;;;;;9.00;4.55;;;-2.10;99.90;;;;;;5070182;28;20029;-53
2022/12/29 04:50:39;;;;;;;6.28;4.63;;;-2.20;99.90;;;;;;5070833;28;20043;-51
2022/12/29 04:53:05;;;;;;;9.18;5.03;;;-2.10;99.90;;;;;;5071628;28;20029;-50
2022/12/29 04:55:31;;;;;;;4.95;3.83;;;-2.10;99.90;;;;;;5071774;28;20021;-52
2022/12/29 04:57:56;;;;;;;4.95;4.05;;;-2.10;99.90;;;;;;5071642;28;20061;-51
2022/12/29 05:00:22;;;;;;;4.80;4.00;;;-2.20;99.90;;;;;;5071746;28;20032;-51
2022/12/29 05:02:48;;;;;;;4.60;3.90;;;-2.20;99.90;;;;;;5071642;28;20082;-51
2022/12/29 05:05:14;;;;;;;4.80;4.43;;;-2.20;99.90;;;;;;5055609;28;20495;-54
2022/12/29 05:07:39;;;;;;;7.45;4.05;;;-2.20;99.90;;;;;;5051706;28;20090;-51
2022/12/29 05:10:06;;;;;;;8.68;4.05;;;-2.20;99.90;;;;;;5051265;28;20075;-53
2022/12/29 05:12:34;;;;;;;4.07;3.75;;;-2.30;99.90;;;;;;5051159;28;20017;-51
2022/12/29 05:15:00;;;;;;;4.80;3.88;;;-2.30;99.90;;;;;;5051601;28;20025;-53
2022/12/29 05:17:26;;;;;;;5.70;3.47;;;-2.30;99.90;;;;;;5051264;28;20028;-49
2022/12/29 05:19:51;;;;;;;4.57;4.18;;;-2.30;99.90;;;;;;5065801;28;20020;-53
2022/12/29 05:22:17;;;;;;;5.00;4.45;;;-2.30;99.90;;;;;;5071593;28;20047;-53
2022/12/29 05:24:43;;;;;;;5.03;4.55;;;-2.30;99.90;;;;;;5060509;28;20029;-50
2022/12/29 05:27:09;;;;;;;4.97;3.97;;;-2.30;99.90;;;;;;5051396;28;20036;-54
2022/12/29 05:29:34;;;;;;;4.20;3.80;;;-2.20;99.90;;;;;;5051329;28;20033;-52
2022/12/29 05:32:00;;;;;;;6.13;4.10;;;-2.20;99.90;;;;;;5051215;28;20029;-52
2022/12/29 05:34:25;;;;;;;5.28;4.10;;;-2.10;99.90;;;;;;5050898;28;20025;-53
2022/12/29 05:36:51;;;;;;;4.57;4.18;;;-2.20;99.90;;;;;;5049895;28;20069;-54
2022/12/29 05:39:17;;;;;;;4.78;4.38;;;-2.20;99.90;;;;;;5050990;28;20037;-50
2022/12/29 05:41:43;;;;;;;5.90;4.50;;;-2.20;99.90;;;;;;5051062;28;20430;-53
2022/12/29 05:44:10;;;;;;;4.95;4.55;;;-2.20;99.90;;;;;;5051160;28;20032;-51
2022/12/29 05:46:36;;;;;;;4.82;4.38;;;-2.20;99.90;;;;;;5051028;28;20106;-52
2022/12/29 05:49:01;;;;;;;4.50;4.10;;;-2.20;99.90;;;;;;5050850;28;20096;-52
2022/12/29 05:51:27;;;;;;;5.70;4.53;;;-2.20;99.90;;;;;;5050803;28;20025;-54
2022/12/29 05:53:52;;;;;;;4.35;3.95;;;-2.20;99.90;;;;;;5052254;28;20352;-51
2022/12/29 05:56:18;;;;;;;6.82;4.15;;;-2.20;99.90;;;;;;5051117;28;20570;-54
2022/12/29 05:58:44;;;;;;;4.00;3.70;;;-2.20;99.90;;;;;;5048884;28;20029;-52
2022/12/29 06:01:10;;;;;;;6.40;4.38;;;-2.10;99.90;;;;;;5072110;28;20113;-51
2022/12/29 06:03:35;;;;;;;4.18;3.88;;;-2.20;99.90;;;;;;5074401;28;20032;-52
2022/12/29 06:06:01;;;;;;;5.45;4.43;;;-2.20;99.90;;;;;;5074336;28;20499;-53
2022/12/29 06:08:26;;;;;;;4.25;3.85;;;-2.20;99.90;;;;;;5066589;28;20349;-53
2022/12/29 06:10:52;;;;;;;4.47;4.10;;;-2.20;99.90;;;;;;5072701;28;20117;-50
2022/12/29 06:13:18;;;;;;;4.82;3.75;;;-2.20;99.90;;;;;;5073316;28;20402;-51
2022/12/29 06:15:44;;;;;;;4.38;3.90;;;-2.20;99.90;;;;;;5074614;28;20468;-51
2022/12/29 06:18:09;;;;;;;5.80;4.32;;;-2.10;99.90;;;;;;5074250;28;20028;-55
2022/12/29 06:20:35;;;;;;;7.07;4.28;;;-2.10;99.90;;;;;;5074397;28;20078;-51
2022/12/29 06:23:00;;;;;;;5.85;4.05;;;-2.10;99.90;;;;;;5073946;28;20433;-51
2022/12/29 06:25:26;;;;;;;5.03;3.85;;;-2.10;99.90;;;;;;5074311;28;20056;-53
2022/12/29 06:27:52;;;;;;;8.18;3.80;;;-2.00;99.90;;;;;;5074160;28;20024;-55
2022/12/29 06:30:18;;;;;;;4.55;4.20;;;-1.90;99.90;;;;;;5074255;28;20024;-50
2022/12/29 06:32:44;;;;;;;20.77;8.45;;;-1.80;99.90;;;;;;5074310;28;20025;-54
2022/12/29 06:35:09;;;;;;;11.60;6.70;;;-1.70;99.90;;;;;;5073500;28;20016;-54
2022/12/29 06:37:35;;;;;;;10.85;7.15;;;-1.60;99.90;;;;;;5072557;28;20602;-52
2022/12/29 06:40:01;;;;;;;12.07;7.63;;;-1.60;99.90;;;;;;5073974;28;20016;-55
2022/12/29 06:42:27;;;;;;;33.00;8.93;;;-1.50;99.90;;;;;;5073762;28;20032;-51
2022/12/29 06:44:53;;;;;;;9.90;5.68;;;-1.50;99.90;;;;;;5074002;28;20048;-51
2022/12/29 06:47:18;;;;;;;11.45;8.40;;;-1.50;99.90;;;;;;5072599;28;20359;-49
2022/12/29 06:49:44;;;;;;;10.25;5.18;;;-1.40;99.90;;;;;;5073974;28;20028;-53
2022/12/29 06:52:10;;;;;;;5.00;4.60;;;-1.40;99.90;;;;;;5072715;28;20476;-50
2022/12/29 06:54:36;;;;;;;9.43;5.03;;;-1.40;99.90;;;;;;5073342;28;20562;-67
2022/12/29 06:57:01;;;;;;;10.23;7.40;;;-1.30;99.90;;;;;;5072412;28;20024;-51
2022/12/29 06:59:27;;;;;;;10.65;6.03;;;-1.30;99.90;;;;;;5073426;28;20535;-51
2022/12/29 07:01:53;;;;;;;8.27;6.47;;;-1.30;99.90;;;;;;5056170;28;20079;-52
2022/12/29 07:04:18;;;;;;;8.95;6.20;;;-1.30;99.90;;;;;;5058327;28;20099;-52
2022/12/29 07:06:44;;;;;;;9.00;6.45;;;-1.30;99.90;;;;;;5073487;28;20032;-55
2022/12/29 07:09:10;;;;;;;44.20;20.05;;;-1.40;99.90;;;;;;5073067;28;20040;-54
2022/12/29 07:11:36;;;;;;;50.13;20.80;;;-1.40;99.90;;;;;;5072469;28;20024;-54
2022/12/29 07:14:02;;;;;;;23.85;13.15;;;-1.40;99.90;;;;;;5073389;28;20025;-50
2022/12/29 07:16:29;;;;;;;20.05;11.50;;;-1.40;99.90;;;;;;5072862;28;20028;-54
2022/12/29 07:18:55;;;;;;;11.63;6.95;;;-1.40;99.90;;;;;;5073543;28;20051;-51
2022/12/29 07:21:20;;;;;;;7.07;5.30;;;-1.40;99.90;;;;;;5073436;28;20025;-54
2022/12/29 07:23:47;;;;;;;6.95;5.68;;;-1.40;99.90;;;;;;5056314;28;20040;-52
2022/12/29 07:26:14;;;;;;;6.47;5.65;;;-1.40;99.90;;;;;;5053177;28;20009;-57
2022/12/29 07:28:41;;;;;;;8.38;6.28;;;-1.30;99.90;;;;;;5072707;28;20046;-51
2022/12/29 07:31:20;;;;;;;5.53;4.78;;;-1.30;99.90;;;;;;5067939;28;20028;-52
2022/12/29 07:33:46;;;;;;;5.82;5.25;;;-1.30;99.90;;;;;;5071319;28;20549;-53
2022/12/29 07:36:13;;;;;;;6.72;5.65;;;-1.20;99.90;;;;;;5054137;28;20032;-50
2022/12/29 07:38:39;;;;;;;9.07;5.40;;;-1.10;99.90;;;;;;5053268;28;20103;-54
2022/12/29 07:41:05;;;;;;;11.05;6.22;;;-1.00;99.90;;;;;;5052787;28;20024;-56
2022/12/29 07:43:31;;;;;;;6.63;5.38;;;-0.90;99.90;;;;;;5052389;28;20506;-53
2022/12/29 07:45:56;;;;;;;6.75;4.47;;;-0.70;99.90;;;;;;5071224;28;20020;-53
2022/12/29 07:48:37;;;;;;;18.55;9.60;;;-0.50;99.90;;;;;;5072080;28;20021;-53
2022/12/29 07:51:03;;;;;;;32.30;15.13;;;-0.40;99.90;;;;;;5069871;28;20037;-52
2022/12/29 07:53:28;;;;;;;18.17;10.57;;;-0.20;99.90;;;;;;5070890;28;20478;-51
2022/12/29 07:55:54;;;;;;;13.35;8.63;;;-0.10;99.90;;;;;;5053172;28;20548;-55
2022/12/29 07:58:20;;;;;;;8.52;7.28;;;0.00;99.90;;;;;;5051601;28;20488;-51
2022/12/29 08:00:45;;;;;;;7.30;5.95;;;0.10;99.90;;;;;;5051790;28;20067;-55
2022/12/29 08:03:11;;;;;;;6.95;6.22;;;0.20;99.90;;;;;;5070342;28;20021;-56
2022/12/29 08:05:37;;;;;;;8.50;7.13;;;0.40;99.90;;;;;;5071951;28;20036;-53
2022/12/29 08:08:02;;;;;;;8.80;7.15;;;0.50;99.90;;;;;;5072269;28;20090;-53
2022/12/29 08:10:28;;;;;;;11.63;9.45;;;0.60;99.90;;;;;;5071281;28;20048;-55
2022/12/29 08:12:54;;;;;;;27.13;17.65;;;0.70;99.90;;;;;;5055142;28;20039;-52
2022/12/29 08:15:19;;;;;;;16.50;10.20;;;0.80;99.90;;;;;;5052120;28;20021;-52
2022/12/29 08:17:45;;;;;;;41.60;21.45;;;0.90;99.90;;;;;;5052164;28;20032;-52
2022/12/29 08:20:11;;;;;;;36.75;20.52;;;0.90;99.90;;;;;;5068043;28;20073;-53
2022/12/29 08:22:36;;;;;;;34.08;17.35;;;1.00;99.90;;;;;;5072054;28;20021;-51
2022/12/29 08:25:02;;;;;;;32.58;19.98;;;1.20;99.90;;;;;;5072118;28;20036;-52
2022/12/29 08:27:28;;;;;;;37.78;20.77;;;1.20;99.90;;;;;;5057888;28;20028;-55
2022/12/29 08:29:54;;;;;;;27.83;18.58;;;1.40;99.90;;;;;;5051943;28;20425;-55
2022/12/29 08:32:19;;;;;;;31.20;17.65;;;1.40;99.90;;;;;;5051598;28;20066;-55
2022/12/29 08:34:45;;;;;;;22.05;14.50;;;1.50;99.90;;;;;;5051624;28;20468;-56
2022/12/29 08:37:11;;;;;;;28.85;13.05;;;1.60;99.90;;;;;;5064868;28;20042;-54
2022/12/29 08:39:36;;;;;;;20.92;14.77;;;1.70;99.90;;;;;;5070706;28;20019;-54
2022/12/29 08:42:02;;;;;;;34.30;16.45;;;1.80;99.90;;;;;;5070558;28;20040;-55
2022/12/29 08:44:28;;;;;;;26.15;17.63;;;1.80;99.90;;;;;;5070798;28;20131;-55
2022/12/29 08:46:53;;;;;;;27.10;16.95;;;1.80;99.90;;;;;;5071538;28;20032;-56
2022/12/29 08:49:19;;;;;;;28.00;16.58;;;2.00;99.90;;;;;;5070581;28;20031;-55
2022/12/29 08:51:45;;;;;;;28.05;19.60;;;2.10;99.90;;;;;;5070785;28;20624;-56
2022/12/29 08:54:10;;;;;;;39.20;19.58;;;2.20;99.90;;;;;;5070482;28;20414;-52
2022/12/29 08:56:36;;;;;;;26.85;18.02;;;2.20;99.90;;;;;;5060006;28;20025;-50
2022/12/29 08:59:02;;;;;;;28.73;17.70;;;2.40;99.90;;;;;;5057336;28;20487;-55
2022/12/29 09:01:27;;;;;;;27.80;18.05;;;2.50;99.90;;;;;;5060370;28;20070;-56
2022/12/29 09:03:54;;;;;;;23.50;16.48;;;2.60;99.90;;;;;;5071554;28;20104;-57
2022/12/29 09:06:20;;;;;;;24.13;15.27;;;2.80;99.90;;;;;;5070792;28;20368;-54
2022/12/29 09:08:46;;;;;;;15.63;9.63;;;2.90;99.90;;;;;;5071495;28;20020;-55
2022/12/29 09:11:18;;;;;;;109.65;43.22;;;3.20;99.90;;;;;;5070577;28;20067;-52
2022/12/29 09:13:44;;;;;;;59.25;26.13;;;3.30;99.90;;;;;;5071155;28;20025;-57
2022/12/29 09:16:09;;;;;;;57.63;24.58;;;3.40;99.90;;;;;;5071070;28;20021;-53
2022/12/29 09:18:36;;;;;;;22.27;11.93;;;3.50;99.90;;;;;;5070575;28;20025;-52
2022/12/29 09:21:04;;;;;;;63.47;31.17;;;3.70;99.90;;;;;;5063393;28;20056;-54
2022/12/29 09:23:30;;;;;;;63.80;33.60;;;3.80;99.90;;;;;;5062516;28;20028;-53
2022/12/29 09:25:56;;;;;;;59.40;34.42;;;3.80;99.90;;;;;;5071031;28;20025;-55
2022/12/29 09:28:22;;;;;;;41.97;26.73;;;3.90;99.90;;;;;;5071057;28;20375;-57
2022/12/29 09:30:49;;;;;;;47.55;24.38;;;4.00;99.90;;;;;;5079347;28;20024;-57
2022/12/29 09:33:15;;;;;;;25.85;17.65;;;4.10;99.90;;;;;;5078282;28;20028;-57
2022/12/29 09:35:44;;;;;;;18.45;12.75;;;4.20;99.90;;;;;;5086391;28;20018;-56
2022/12/29 09:38:10;;;;;;;144.85;48.03;;;4.20;99.90;;;;;;5066484;28;20036;-55
2022/12/29 09:40:37;;;;;;;344.15;111.80;;;4.50;99.90;;;;;;5083752;28;20073;-58
2022/12/29 09:43:33;;;;;;;76.82;34.78;;;4.60;99.90;;;;;;5081372;28;20557;-55
2022/12/29 09:46:26;;;;;;;89.03;38.20;;;4.70;99.90;;;;;;5080110;28;20052;-55
2022/12/29 09:49:12;;;;;;;81.03;33.90;;;4.70;99.90;;;;;;5070122;28;20028;-55
2022/12/29 09:51:41;;;;;;;39.90;20.52;;;4.90;99.90;;;;;;5070359;28;20444;-51
2022/12/29 09:54:39;;;;;;;34.70;17.80;;;5.00;99.90;;;;;;5069894;28;20051;-55
2022/12/29 09:57:23;;;;;;;63.00;26.60;;;5.00;99.90;;;;;;5071181;28;20035;-51
2022/12/29 09:59:52;;;;;;;31.52;15.30;;;5.20;99.90;;;;;;5070916;28;20028;-53
2022/12/29 10:02:36;;;;;;;19.45;11.88;;;5.40;99.90;;;;;;5070312;28;20032;-53
2022/12/29 10:05:03;;;;;;;36.95;20.42;;;5.20;99.90;;;;;;5069178;28;20016;-54
2022/12/29 10:07:47;;;;;;;24.10;15.40;;;5.20;99.90;;;;;;5068495;28;20028;-52
2022/12/29 10:10:40;;;;;;;35.00;20.00;;;5.20;99.90;;;;;;5068267;28;20381;-56
2022/12/29 10:13:17;;;;;;;42.40;23.45;;;5.30;99.90;;;;;;5067868;28;20036;-52
2022/12/29 10:15:50;;;;;;;42.53;23.10;;;5.70;99.90;;;;;;5069693;28;20593;-57
2022/12/29 10:18:40;;;;;;;34.65;19.52;;;6.70;99.90;;;;;;5069971;28;20028;-56
2022/12/29 10:21:33;;;;;;;12.55;8.68;;;7.90;99.90;;;;;;5070388;28;20411;-54
2022/12/29 10:24:02;;;;;;;14.10;8.40;;;9.80;99.90;;;;;;5070986;28;20057;-53
2022/12/29 10:26:31;;;;;;;8.20;5.50;;;10.30;96.50;;;;;;5070751;28;20036;-55
2022/12/29 10:29:05;;;;;;;11.45;8.30;;;9.90;97.30;;;;;;5070835;28;20059;-51
2022/12/29 10:31:38;;;;;;;8.57;6.55;;;9.80;97.20;;;;;;5070308;28;20032;-52
2022/12/29 10:34:17;;;;;;;9.65;7.40;;;9.20;97.90;;;;;;5070605;28;20013;-51
2022/12/29 10:36:48;;;;;;;6.57;5.05;;;10.30;96.60;;;;;;5070441;28;20016;-55
2022/12/29 10:39:26;;;;;;;8.00;4.68;;;10.60;94.40;;;;;;5070194;28;20024;-55
2022/12/29 10:42:18;;;;;;;9.57;5.70;;;9.80;95.30;;;;;;5070077;28;20107;-53
2022/12/29 10:44:44;;;;;;;13.18;10.00;;;8.80;96.40;;;;;;5070538;28;20380;-52
2022/12/29 10:47:19;;;;;;;8.68;6.97;;;8.60;97.00;;;;;;5071221;28;20032;-51
2022/12/29 10:49:47;;;;;;;7.72;5.85;;;8.50;98.20;;;;;;5073909;28;20056;-50
2022/12/29 10:52:14;;;;;;;6.95;6.05;;;8.50;98.20;;;;;;5073646;28;20035;-57
2022/12/29 10:54:45;;;;;;;5.97;4.63;;;8.20;99.20;;;;;;5073227;28;20024;-56
2022/12/29 10:57:35;;;;;;;6.28;4.80;;;8.30;99.30;;;;;;5057872;28;20468;-56
2022/12/29 11:00:01;;;;;;;6.07;4.53;;;8.90;98.20;;;;;;5059956;28;20044;-55
2022/12/29 11:02:50;;;;;;;5.20;4.63;;;9.00;98.70;;;;;;5072041;28;20116;-55
2022/12/29 11:05:36;;;;;;;11.40;5.35;;;9.40;97.40;;;;;;5054097;28;20403;-55
2022/12/29 11:08:08;;;;;;;6.55;4.63;;;9.50;97.30;;;;;;5053821;28;20025;-54
2022/12/29 11:10:33;;;;;;;8.55;5.45;;;10.50;96.50;;;;;;5052427;28;20110;-56
2022/12/29 11:13:24;;;;;;;8.93;5.38;;;11.20;94.20;;;;;;5042371;28;20617;-56
2022/12/29 11:15:50;;;;;;;18.08;9.20;;;11.40;93.40;;;;;;5042178;28;20037;-56
2022/12/29 11:18:25;;;;;;;8.68;5.93;;;11.80;91.80;;;;;;5042350;28;20033;-57
2022/12/29 11:20:59;;;;;;;17.77;10.07;;;13.40;90.80;;;;;;5042125;28;20025;-56
2022/12/29 11:23:24;;;;;;;;;;;13.00;88.10;;;;;;5042627;28;20029;-53
2022/12/29 11:26:15;;;;;;;19.52;10.98;;;13.40;90.00;;;;;;5041334;28;19923;-54
2022/12/29 11:28:44;;;;;;;12.25;8.88;;;12.80;90.80;;;;;;5044013;28;20045;-52
2022/12/29 11:31:14;;;;;;;16.05;11.38;;;13.40;89.80;;;;;;5042067;28;20037;-53
2022/12/29 11:33:40;;;;;;;5.97;4.82;;;13.60;90.10;;;;;;5042958;28;20033;-54
2022/12/29 11:36:19;;;;;;;11.35;4.72;;;14.90;85.30;;;;;;5043049;28;20055;-55
2022/12/29 11:38:50;;;;;;;7.65;4.90;;;14.50;83.90;;;;;;5042411;28;20034;-54
2022/12/29 11:41:23;;;;;;;8.10;5.22;;;13.60;87.30;;;;;;5041887;28;20049;-55
2022/12/29 11:43:49;;;;;;;10.48;6.57;;;13.00;89.00;;;;;;5042010;28;20407;-53
2022/12/29 11:46:19;;;;;;;13.60;6.07;;;12.50;91.40;;;;;;5042027;28;20029;-55
2022/12/29 11:48:47;;;;;;;7.70;5.28;;;12.10;93.00;;;;;;5042570;28;20021;-54
2022/12/29 11:51:21;;;;;;;16.30;6.55;;;11.60;93.10;;;;;;5042565;28;20025;-53
2022/12/29 11:53:51;;;;;;;18.08;5.57;;;11.50;94.00;;;;;;5041701;28;20044;-56
2022/12/29 11:56:22;;;;;;;10.93;6.25;;;11.50;95.20;;;;;;5041582;28;20025;-55
2022/12/29 11:58:50;;;;;;;9.88;6.05;;;11.80;95.20;;;;;;5039692;28;20424;-56
2022/12/29 12:01:23;;;;;;;13.65;6.90;;;11.60;94.70;;;;;;5040938;28;20029;-55
2022/12/29 12:04:01;;;;;;;9.97;7.27;;;11.50;95.90;;;;;;5041456;28;20484;-55
2022/12/29 12:06:29;;;;;;;15.38;8.07;;;11.50;95.30;;;;;;5042007;28;20310;-54
2022/12/29 12:08:59;;;;;;;19.05;7.78;;;11.20;96.50;;;;;;5060474;28;20032;-53
2022/12/29 12:11:37;;;;;;;19.42;6.53;;;11.00;97.70;;;;;;5042789;28;20532;-53
2022/12/29 12:14:18;;;;;;;14.77;5.88;;;11.00;99.20;;;;;;5060726;28;20044;-53
2022/12/29 12:17:07;;;;;;;17.42;5.20;;;11.20;99.10;;;;;;5045679;28;20029;-51
2022/12/29 12:19:55;;;;;;;14.10;6.35;;;11.40;99.30;;;;;;5060316;28;20074;-56
2022/12/29 12:22:32;;;;;;;12.52;5.85;;;11.80;98.00;;;;;;5042858;28;20057;-55
2022/12/29 12:25:20;;;;;;;13.02;6.72;;;12.20;97.30;;;;;;5042732;28;20075;-57
2022/12/29 12:27:59;;;;;;;7.82;4.65;;;12.70;98.50;;;;;;5049240;28;20083;-54
2022/12/29 12:30:30;;;;;;;7.95;5.38;;;14.40;93.40;;;;;;5043143;28;20029;-52
2022/12/29 12:33:32;;;;;;;8.85;5.20;;;15.50;89.20;;;;;;5041986;28;20095;-54
2022/12/29 12:36:22;;;;;;;10.77;6.03;;;16.00;86.60;;;;;;5052429;28;20415;-53
2022/12/29 12:39:10;;;;;;;7.45;4.20;;;16.30;84.90;;;;;;5049565;28;20048;-55
2022/12/29 12:41:57;;;;;;;4.25;3.22;;;15.70;76.90;;;;;;5039516;28;20090;-55
2022/12/29 12:45:13;;;;;;;3.15;2.47;;;16.00;73.10;;;;;;5041480;28;20029;-56
2022/12/29 12:48:16;;;;;;;217.70;137.70;;;16.10;69.20;;;;;;5038301;28;20033;-55
2022/12/29 12:51:08;;;;;;;14.98;8.68;;;16.00;69.80;;;;;;5041286;28;20033;-56
2022/12/29 12:53:45;;;;;;;14.77;8.65;;;15.90;68.10;;;;;;5041597;28;20025;-55
2022/12/29 12:56:10;;;;;;;15.30;10.85;;;15.70;70.40;;;;;;5041494;28;20108;-55
2022/12/29 12:58:58;;;;;;;31.73;23.08;;;15.70;68.40;;;;;;5040463;28;20610;-56
2022/12/29 13:01:44;;;;;;;26.35;15.07;;;15.50;69.70;;;;;;5041051;28;20083;-55
2022/12/29 13:04:34;;;;;;;21.73;14.65;;;15.30;73.00;;;;;;5039897;28;20049;-53
2022/12/29 13:07:21;;;;;;;8.68;5.22;;;15.30;70.60;;;;;;5058151;28;20492;-55
2022/12/29 13:09:58;;;;;;;10.18;4.57;;;15.80;70.50;;;;;;5057695;28;20052;-55
2022/12/29 13:13:10;;;;;;;4.13;3.38;;;16.10;74.90;;;;;;5039605;28;20043;-54
2022/12/29 13:15:42;;;;;;;9.27;3.63;;;16.90;74.60;;;;;;5038979;28;20040;-53
2022/12/29 13:18:19;;;;;;;5.30;2.95;;;17.10;64.70;;;;;;5040280;28;20032;-54
2022/12/29 13:21:04;;;;;;;10.55;3.33;;;17.50;63.60;;;;;;5040248;28;20060;-54
2022/12/29 13:23:53;;;;;;;6.30;4.07;;;16.30;68.30;;;;;;5041404;28;20028;-50
2022/12/29 13:26:58;;;;;;;3.53;2.83;;;15.70;72.30;;;;;;5038718;28;20130;-54
2022/12/29 13:29:33;;;;;;;3.15;2.50;;;14.70;70.40;;;;;;5056981;28;20040;-52
2022/12/29 13:32:18;;;;;;;11.13;3.55;;;14.30;70.50;;;;;;5042943;28;20134;-54
2022/12/29 13:35:21;;;;;;;4.28;2.83;;;13.80;76.70;;;;;;5040566;28;20029;-54
2022/12/29 13:38:18;;;;;;;10.40;3.38;;;13.40;78.10;;;;;;5051175;28;20076;-56
2022/12/29 13:40:49;;;;;;;14.70;3.92;;;12.70;82.30;;;;;;5058339;28;20074;-54